createdAt,value
2023-05-09T00:08:47.163Z,1996.79248
2023-05-09T00:23:49.268Z,1607.12708
2023-05-09T00:38:51.216Z,8953.57812
2023-05-09T00:53:53.265Z,4420.08447
2023-05-09T01:08:55.261Z,2096.63208
2023-05-09T01:23:57.242Z,2856.57642
2023-05-09T01:38:59.407Z,698.87738
2023-05-09T01:54:01.389Z,647.50354
2023-05-09T02:09:03.341Z,471.08792
2023-05-09T02:24:05.417Z,364.46307
2023-05-09T02:39:07.413Z,264.62347
2023-05-09T02:54:09.407Z,173.50769
2023-05-09T03:09:11.381Z,75.6067
2023-05-09T03:24:13.325Z,15.50907
2023-05-09T03:39:15.385Z,1.93863
2023-05-09T03:54:17.416Z,0
2023-05-09T04:09:19.388Z,0
2023-05-09T04:24:21.502Z,0
2023-05-09T04:39:23.471Z,0
2023-05-09T04:54:25.455Z,0
2023-05-09T05:09:27.485Z,0
2023-05-09T05:24:29.458Z,0
2023-05-09T05:39:31.455Z,0
2023-05-09T05:54:33.398Z,0
2023-05-09T06:09:35.339Z,0
2023-05-09T06:24:37.549Z,0
2023-05-09T06:39:39.500Z,0
2023-05-09T06:54:41.691Z,0
2023-05-09T07:09:43.686Z,0
2023-05-09T07:24:45.658Z,0
2023-05-09T07:39:47.684Z,0
2023-05-09T07:54:49.845Z,0
2023-05-09T08:09:51.846Z,0
2023-05-09T08:24:53.885Z,0
2023-05-09T08:39:55.866Z,0
2023-05-09T08:54:58.777Z,0
2023-05-09T09:10:00.781Z,0
2023-05-09T09:25:02.719Z,0
2023-05-09T09:40:04.770Z,0
2023-05-09T09:55:06.990Z,0
2023-05-09T10:10:09.076Z,0
2023-05-09T10:25:11.066Z,0
2023-05-09T10:40:13.038Z,0
2023-05-09T10:55:15.270Z,0
2023-05-09T11:10:17.613Z,0
2023-05-09T11:25:19.601Z,0
2023-05-09T11:40:21.696Z,0
2023-05-09T11:55:23.781Z,1.93863
2023-05-09T12:10:25.781Z,17.4477
2023-05-09T12:25:27.757Z,54.28174
2023-05-09T12:40:29.855Z,100.80894
2023-05-09T12:55:31.965Z,208.40309
2023-05-09T13:10:33.915Z,354.76993
2023-05-09T13:25:35.905Z,481.7504
2023-05-09T13:40:38.126Z,940.23724
2023-05-09T13:55:40.094Z,708.5705
2023-05-09T14:10:42.117Z,1146.70166
2023-05-09T14:25:44.139Z,1674.01001
2023-05-09T14:40:46.204Z,1616.82031
2023-05-09T14:55:48.245Z,4400.69775
2023-05-09T15:10:50.203Z,3868.54297
2023-05-09T15:25:52.339Z,7012.03711
2023-05-09T15:40:54.328Z,7105.0918
2023-05-09T15:55:56.312Z,6430.44727
2023-05-09T16:10:58.309Z,6499.26855
2023-05-09T16:26:00.449Z,6814.29639
2023-05-09T16:41:02.464Z,7337.72754
2023-05-09T16:56:04.515Z,7659.54053
2023-05-09T17:11:06.493Z,8205.26562
2023-05-09T17:26:08.539Z,3100.84424
2023-05-09T17:41:10.582Z,4409.42188
2023-05-09T17:56:12.609Z,2947.69214
2023-05-09T18:11:14.763Z,5560.97021
2023-05-09T18:26:16.808Z,5811.05371
2023-05-09T18:41:18.848Z,6628.1875
2023-05-09T18:56:20.833Z,6589.41504
2023-05-09T19:11:22.853Z,5856.61182
2023-05-09T19:26:24.933Z,7111.87695
2023-05-09T19:41:26.976Z,5764.52637
2023-05-09T19:56:28.942Z,4176.78564
2023-05-09T20:11:30.933Z,4366.77197
2023-05-09T20:26:32.995Z,3119.26123
2023-05-09T20:41:34.906Z,2862.39233
2023-05-09T20:56:36.946Z,3782.27393
2023-05-09T21:11:39.127Z,6063.07617
2023-05-09T21:26:41.117Z,6624.31055
2023-05-09T21:41:43.072Z,1823.28479
2023-05-09T21:56:45.049Z,1942.51074
2023-05-09T22:11:47.157Z,2039.44238
2023-05-09T22:26:49.295Z,2442.67822
2023-05-09T22:41:51.234Z,2706.33228
2023-05-09T22:56:53.294Z,8932.25391
2023-05-09T23:11:55.265Z,11437.9375
2023-05-09T23:26:57.280Z,10127.4209
2023-05-09T23:41:59.324Z,9402.37207
2023-05-09T23:57:01.439Z,11571.70312
